Time;durP1;ratioP1;P1;durP2;ratioP2;P2;SDS_P1;SDS_P2;PMS_P1;PMS_P2;Temp;Humidity;BMP_temperature;BMP_pressure;BME280_temperature;BME280_humidity;BME280_pressure;Samples;Min_cycle;Max_cycle;Signal;HPM_P1;HPM_P2
2022/11/27 00:00:59;;;;;;;33.03;11.88;;;6.10;99.90;;;;;;6159586;23;20024;-80
2022/11/27 00:03:25;;;;;;;26.10;10.98;;;6.10;99.90;;;;;;6185922;23;20021;-80
2022/11/27 00:05:57;;;;;;;35.75;10.88;;;6.10;99.90;;;;;;6186013;23;20495;-80
2022/11/27 00:08:24;;;;;;;34.13;11.68;;;6.10;99.90;;;;;;6159515;23;20021;-80
2022/11/27 00:10:49;;;;;;;36.17;10.75;;;6.00;99.90;;;;;;6185873;23;20438;-80
2022/11/27 00:13:15;;;;;;;33.90;10.25;;;6.00;99.90;;;;;;6186197;23;20076;-80
2022/11/27 00:15:41;;;;;;;32.63;12.15;;;6.00;99.90;;;;;;6187460;23;20062;-80
2022/11/27 00:18:07;;;;;;;27.42;10.35;;;5.90;99.90;;;;;;6188933;23;20051;-80
2022/11/27 00:20:33;;;;;;;36.88;11.70;;;6.00;99.90;;;;;;6188311;23;20025;-80
2022/11/27 00:22:58;;;;;;;27.90;10.00;;;6.00;99.90;;;;;;6188152;23;20349;-80
2022/11/27 00:25:24;;;;;;;29.58;10.00;;;6.00;99.90;;;;;;6161558;23;20425;-80
2022/11/27 00:27:50;;;;;;;34.50;10.55;;;5.90;99.90;;;;;;6187816;23;20350;-79
2022/11/27 00:30:15;;;;;;;33.00;9.95;;;6.00;99.90;;;;;;6187834;23;20504;-80
2022/11/27 00:32:41;;;;;;;32.53;11.30;;;5.90;99.90;;;;;;6188196;23;20029;-80
2022/11/27 00:35:07;;;;;;;29.45;10.00;;;6.00;99.90;;;;;;6187891;23;20122;-80
2022/11/27 00:37:33;;;;;;;23.73;9.25;;;6.00;99.90;;;;;;6161499;23;20516;-80
2022/11/27 00:39:58;;;;;;;36.75;10.52;;;6.00;99.90;;;;;;6187773;23;20044;-80
2022/11/27 00:42:24;;;;;;;34.22;10.43;;;6.00;99.90;;;;;;6187735;23;20064;-79
2022/11/27 00:44:50;;;;;;;30.77;9.65;;;6.00;99.90;;;;;;6187655;23;20476;-80
2022/11/27 00:47:16;;;;;;;29.45;9.98;;;6.00;99.90;;;;;;6187987;23;20017;-80
2022/11/27 00:49:42;;;;;;;30.73;10.52;;;6.00;99.90;;;;;;6161363;23;20025;-80
2022/11/27 00:52:07;;;;;;;33.15;10.77;;;6.00;99.90;;;;;;6188034;23;20079;-80
2022/11/27 00:54:33;;;;;;;30.63;9.90;;;6.00;99.90;;;;;;6188016;23;20310;-80
2022/11/27 00:56:59;;;;;;;22.92;8.85;;;5.90;99.90;;;;;;6187675;23;20032;-80
2022/11/27 00:59:25;;;;;;;26.33;9.02;;;6.00;99.90;;;;;;6187920;23;20017;-80
2022/11/27 01:01:50;;;;;;;33.25;9.52;;;5.90;99.90;;;;;;6161270;23;20017;-80
2022/11/27 01:04:16;;;;;;;22.88;9.80;;;5.90;99.90;;;;;;6161248;23;20032;-80
2022/11/27 01:06:43;;;;;;;32.17;8.93;;;5.90;99.90;;;;;;6161193;23;20513;-80
2022/11/27 01:09:10;;;;;;;28.48;8.10;;;5.90;99.90;;;;;;6161129;23;20025;-80
2022/11/27 01:11:37;;;;;;;23.73;7.85;;;5.90;99.90;;;;;;6187831;23;20013;-80
2022/11/27 01:14:07;;;;;;;25.10;9.88;;;5.90;99.90;;;;;;6187469;23;20017;-79
2022/11/27 01:16:34;;;;;;;37.97;9.85;;;5.80;99.90;;;;;;6187401;23;20083;-80
2022/11/27 01:19:00;;;;;;;26.45;8.30;;;5.90;99.90;;;;;;6161050;23;20027;-79
2022/11/27 01:21:29;;;;;;;22.77;8.40;;;5.80;99.90;;;;;;6161107;23;20052;-80
2022/11/27 01:23:55;;;;;;;28.60;9.05;;;5.80;99.90;;;;;;6187721;23;20010;-79
2022/11/27 01:26:21;;;;;;;25.40;10.15;;;5.80;99.90;;;;;;6187318;23;20441;-80
2022/11/27 01:28:51;;;;;;;25.98;8.20;;;5.90;99.90;;;;;;6187187;23;20017;-80
2022/11/27 01:31:21;;;;;;;21.15;8.43;;;5.80;99.90;;;;;;6187287;23;20350;-80
2022/11/27 01:33:47;;;;;;;26.17;9.23;;;5.70;99.90;;;;;;6187653;23;20103;-80
2022/11/27 01:36:14;;;;;;;27.58;8.80;;;5.80;99.90;;;;;;6160973;23;20021;-80
2022/11/27 01:38:41;;;;;;;28.08;8.95;;;5.70;99.90;;;;;;6187563;23;20052;-80
2022/11/27 01:41:24;;;;;;;21.50;9.10;;;5.70;99.90;;;;;;6160872;23;20017;-80
2022/11/27 01:43:56;;;;;;;29.75;9.48;;;5.70;99.90;;;;;;6187643;23;20024;-79
2022/11/27 01:46:26;;;;;;;24.35;8.52;;;5.70;99.90;;;;;;6187511;23;20028;-80
2022/11/27 01:48:56;;;;;;;25.38;9.90;;;5.80;99.90;;;;;;6187406;23;20021;-79
2022/11/27 01:51:22;;;;;;;29.25;9.55;;;5.70;99.90;;;;;;6187492;23;20032;-80
2022/11/27 01:53:50;;;;;;;26.60;10.10;;;5.70;99.90;;;;;;6187220;23;20013;-80
2022/11/27 01:56:16;;;;;;;26.88;8.50;;;5.60;99.90;;;;;;6160775;23;20020;-79
2022/11/27 01:58:42;;;;;;;29.42;9.38;;;5.70;99.90;;;;;;6187069;23;20025;-79
2022/11/27 02:01:08;;;;;;;24.95;8.75;;;5.60;99.90;;;;;;6160726;23;20048;-80
2022/11/27 02:03:34;;;;;;;28.77;9.15;;;5.60;99.90;;;;;;6187048;23;20017;-80
2022/11/27 02:05:59;;;;;;;32.08;9.77;;;5.60;99.90;;;;;;6186953;23;20052;-80
2022/11/27 02:08:25;;;;;;;24.55;9.10;;;5.70;99.90;;;;;;6186904;23;20023;-80
2022/11/27 02:11:01;;;;;;;23.08;8.75;;;5.70;99.90;;;;;;6187004;23;20025;-80
2022/11/27 02:13:37;;;;;;;27.55;9.68;;;5.70;99.90;;;;;;6160627;23;20013;-80
2022/11/27 02:16:19;;;;;;;22.17;9.50;;;5.60;99.90;;;;;;6186915;23;20092;-80
2022/11/27 02:18:58;;;;;;;21.58;8.13;;;5.60;99.90;;;;;;6186894;23;20468;-80
2022/11/27 02:21:40;;;;;;;28.45;9.63;;;5.60;99.90;;;;;;6187235;23;20017;-80
2022/11/27 02:25:04;;;;;;;21.58;8.73;;;5.70;99.90;;;;;;6187206;23;20009;-80
2022/11/27 02:27:59;;;;;;;27.67;9.23;;;5.60;99.90;;;;;;6067013;23;20405;-80
2022/11/27 02:30:26;;;;;;;27.95;9.15;;;5.60;99.90;;;;;;6067084;23;20022;-80
2022/11/27 02:32:57;;;;;;;25.23;9.05;;;5.70;99.90;;;;;;6147668;23;20063;-79
2022/11/27 02:35:54;;;;;;;28.75;11.13;;;5.60;99.90;;;;;;6187067;23;20025;-79
2022/11/27 02:38:24;;;;;;;20.10;9.45;;;5.60;99.90;;;;;;6152724;23;20017;-80
2022/11/27 02:41:02;;;;;;;32.65;9.95;;;5.60;99.90;;;;;;6187014;23;20047;-79
2022/11/27 02:43:35;;;;;;;21.55;9.48;;;5.60;99.90;;;;;;6160304;23;20063;-80
2022/11/27 02:46:03;;;;;;;24.08;10.07;;;5.70;99.90;;;;;;6160407;23;20032;-79
2022/11/27 02:48:34;;;;;;;23.27;9.80;;;5.70;99.90;;;;;;6186420;23;20341;-79
2022/11/27 02:51:02;;;;;;;26.65;8.90;;;5.70;99.90;;;;;;6186938;23;20048;-80
2022/11/27 02:53:56;;;;;;;18.27;8.98;;;5.80;99.90;;;;;;6186848;23;20013;-79
2022/11/27 02:56:25;;;;;;;26.80;8.88;;;5.70;99.90;;;;;;6172131;23;20028;-79
2022/11/27 02:58:54;;;;;;;21.80;8.77;;;5.80;99.90;;;;;;6160214;23;20083;-79
2022/11/27 03:01:22;;;;;;;19.33;8.32;;;5.70;99.90;;;;;;6186809;23;20017;-79
2022/11/27 03:03:52;;;;;;;26.52;8.32;;;5.80;99.90;;;;;;6186791;23;20028;-79
2022/11/27 03:06:25;;;;;;;25.20;10.32;;;5.70;99.90;;;;;;6186747;23;20040;-79
2022/11/27 03:09:04;;;;;;;21.52;9.05;;;5.80;99.90;;;;;;6186670;23;20052;-79
2022/11/27 03:11:30;;;;;;;22.77;8.90;;;5.90;99.90;;;;;;6186796;23;20013;-79
2022/11/27 03:14:00;;;;;;;18.20;8.02;;;5.80;99.90;;;;;;6186339;23;20028;-79
2022/11/27 03:16:34;;;;;;;26.67;8.50;;;5.80;99.90;;;;;;6186292;23;20020;-79
2022/11/27 03:19:00;;;;;;;25.48;8.75;;;5.90;99.90;;;;;;6186606;23;20019;-79
2022/11/27 03:21:42;;;;;;;22.85;8.52;;;5.90;99.90;;;;;;6186268;23;20404;-79
2022/11/27 03:24:09;;;;;;;27.47;8.07;;;5.90;99.90;;;;;;6186709;23;20084;-79
2022/11/27 03:26:36;;;;;;;18.67;8.27;;;5.90;99.90;;;;;;6160012;23;20044;-79
2022/11/27 03:29:06;;;;;;;17.58;7.18;;;5.90;99.90;;;;;;6186140;23;20531;-79
2022/11/27 03:31:32;;;;;;;24.70;8.50;;;5.90;99.90;;;;;;6186502;23;20017;-79
2022/11/27 03:33:58;;;;;;;26.13;8.27;;;5.90;99.90;;;;;;6186509;23;20060;-79
2022/11/27 03:36:23;;;;;;;18.15;7.80;;;6.00;99.90;;;;;;6186504;23;20013;-79
2022/11/27 03:38:51;;;;;;;24.02;7.30;;;6.00;99.90;;;;;;6186497;23;20405;-79
2022/11/27 03:41:42;;;;;;;30.63;8.45;;;6.00;99.90;;;;;;6186119;23;20474;-79
2022/11/27 03:44:48;;;;;;;17.13;7.47;;;5.90;99.90;;;;;;6186502;23;20017;-79
2022/11/27 03:47:51;;;;;;;27.45;8.55;;;5.90;99.90;;;;;;6186306;23;20048;-79
2022/11/27 03:50:44;;;;;;;17.57;8.30;;;5.90;99.90;;;;;;6186304;23;20021;-79
2022/11/27 03:53:18;;;;;;;28.75;9.23;;;5.90;99.90;;;;;;6186431;23;20021;-79
2022/11/27 03:55:49;;;;;;;20.02;8.30;;;5.90;99.90;;;;;;6159732;23;20315;-79
2022/11/27 03:58:22;;;;;;;19.40;8.02;;;5.80;99.90;;;;;;6186413;23;20017;-79
2022/11/27 04:00:50;;;;;;;17.73;8.32;;;5.90;99.90;;;;;;6186032;23;20021;-79
2022/11/27 04:03:23;;;;;;;20.50;8.23;;;5.90;99.90;;;;;;6159682;23;20461;-79
2022/11/27 04:05:49;;;;;;;17.02;8.07;;;5.90;99.90;;;;;;6159718;23;20021;-79
2022/11/27 04:08:14;;;;;;;22.45;9.90;;;5.80;99.90;;;;;;6185810;23;20334;-79
2022/11/27 04:10:40;;;;;;;31.35;8.00;;;5.80;99.90;;;;;;6186304;23;20024;-79
2022/11/27 04:13:06;;;;;;;17.70;8.30;;;5.80;99.90;;;;;;6186245;23;20468;-79
2022/11/27 04:15:31;;;;;;;22.13;8.88;;;5.90;99.90;;;;;;6185980;23;20013;-79
2022/11/27 04:17:57;;;;;;;26.45;9.65;;;5.80;99.90;;;;;;6186254;23;20013;-79
2022/11/27 04:20:22;;;;;;;28.52;9.32;;;5.90;99.90;;;;;;6186255;23;20064;-79
2022/11/27 04:22:48;;;;;;;21.33;8.68;;;5.80;99.90;;;;;;6186248;23;20053;-79
2022/11/27 04:25:14;;;;;;;21.80;8.85;;;5.90;99.90;;;;;;6159567;23;20076;-79
2022/11/27 04:27:39;;;;;;;21.45;9.52;;;5.80;99.90;;;;;;6159522;23;20029;-79
2022/11/27 04:30:06;;;;;;;18.33;8.82;;;5.90;99.90;;;;;;6186241;23;20017;-79
2022/11/27 04:32:32;;;;;;;20.95;9.02;;;5.90;99.90;;;;;;6159560;23;20021;-79
2022/11/27 04:34:57;;;;;;;19.20;8.38;;;6.00;99.90;;;;;;6186206;23;20035;-79
2022/11/27 04:37:23;;;;;;;20.25;8.43;;;5.90;99.90;;;;;;6159523;23;20096;-79
2022/11/27 04:39:48;;;;;;;18.90;7.38;;;5.90;99.90;;;;;;6185785;23;20013;-79
2022/11/27 04:42:14;;;;;;;19.10;8.70;;;5.90;99.90;;;;;;6186181;23;20024;-79
2022/11/27 04:44:40;;;;;;;28.35;8.27;;;6.00;99.90;;;;;;6186113;23;20020;-78
2022/11/27 04:47:05;;;;;;;24.00;8.43;;;6.00;99.90;;;;;;6186127;23;20013;-79
2022/11/27 04:49:31;;;;;;;19.38;7.22;;;6.00;99.90;;;;;;6185763;23;20078;-79
2022/11/27 04:51:57;;;;;;;23.33;7.97;;;6.00;99.90;;;;;;6159480;23;20088;-79
2022/11/27 04:54:22;;;;;;;16.27;7.45;;;6.00;99.90;;;;;;6185745;23;20100;-79
2022/11/27 04:56:48;;;;;;;21.83;7.95;;;6.00;99.90;;;;;;6186069;23;20017;-79
2022/11/27 04:59:14;;;;;;;19.02;7.75;;;6.00;99.90;;;;;;6185757;23;20025;-79
2022/11/27 05:01:39;;;;;;;22.17;7.50;;;6.00;99.90;;;;;;6186645;23;20019;-79
2022/11/27 05:04:05;;;;;;;20.33;6.93;;;6.00;99.90;;;;;;6188051;23;20028;-79
2022/11/27 05:06:30;;;;;;;24.92;9.13;;;6.00;99.90;;;;;;6187981;23;20024;-79
2022/11/27 05:09:00;;;;;;;19.58;7.90;;;6.00;99.90;;;;;;6187819;23;20017;-79
2022/11/27 05:11:28;;;;;;;26.17;7.75;;;6.00;99.90;;;;;;6161063;23;20409;-78
2022/11/27 05:14:13;;;;;;;20.65;7.22;;;6.10;99.90;;;;;;6187842;23;20094;-78
2022/11/27 05:16:49;;;;;;;18.80;7.72;;;6.10;99.90;;;;;;6160936;23;20342;-79
2022/11/27 05:19:16;;;;;;;20.80;7.88;;;6.10;99.90;;;;;;6187755;23;20013;-79
2022/11/27 05:21:43;;;;;;;19.17;7.30;;;6.10;99.90;;;;;;6187784;23;20021;-79
2022/11/27 05:24:09;;;;;;;18.98;7.53;;;6.00;99.90;;;;;;6187736;23;20013;-79
2022/11/27 05:26:36;;;;;;;20.63;8.45;;;6.10;99.90;;;;;;6187755;23;20017;-79
2022/11/27 05:29:02;;;;;;;13.10;5.47;;;6.10;99.90;;;;;;6160946;23;20017;-79
2022/11/27 05:31:28;;;;;;;21.90;6.82;;;6.10;99.90;;;;;;6187712;23;20013;-78
2022/11/27 05:33:53;;;;;;;16.40;7.00;;;6.10;99.90;;;;;;6187640;23;20141;-78
2022/11/27 05:36:19;;;;;;;14.45;7.28;;;6.10;99.90;;;;;;6187645;23;20013;-78
2022/11/27 05:38:45;;;;;;;15.85;6.75;;;6.10;99.90;;;;;;6187598;23;20017;-78
2022/11/27 05:41:11;;;;;;;21.10;6.97;;;6.20;99.90;;;;;;6160933;23;20087;-79
2022/11/27 05:43:37;;;;;;;16.38;6.55;;;6.10;99.90;;;;;;6187194;23;20437;-78
2022/11/27 05:46:07;;;;;;;17.50;6.80;;;6.10;99.90;;;;;;6187532;23;20024;-79
2022/11/27 05:48:34;;;;;;;16.40;5.65;;;6.20;99.90;;;;;;6187478;23;20017;-79
2022/11/27 05:51:00;;;;;;;20.60;5.85;;;6.20;99.90;;;;;;6187121;23;20021;-79
2022/11/27 05:53:26;;;;;;;18.45;6.40;;;6.20;99.90;;;;;;6187095;23;20434;-79
2022/11/27 05:55:51;;;;;;;13.15;5.35;;;6.20;99.90;;;;;;6187542;23;20101;-79
2022/11/27 05:58:17;;;;;;;15.40;5.72;;;6.20;99.90;;;;;;6160732;23;20021;-79
2022/11/27 06:00:44;;;;;;;18.10;6.00;;;6.20;99.90;;;;;;6187124;23;20025;-78
2022/11/27 06:03:12;;;;;;;14.30;6.90;;;6.10;99.90;;;;;;6186956;23;20473;-78
2022/11/27 06:05:39;;;;;;;17.50;5.80;;;6.20;99.90;;;;;;6187017;23;20025;-79
2022/11/27 06:08:05;;;;;;;22.13;6.75;;;6.20;99.90;;;;;;6186828;23;20337;-79
2022/11/27 06:10:31;;;;;;;17.73;5.50;;;6.10;99.90;;;;;;6160674;23;20021;-79
2022/11/27 06:12:56;;;;;;;18.75;6.18;;;6.10;99.90;;;;;;6186794;23;20414;-79
2022/11/27 06:15:22;;;;;;;17.15;6.03;;;6.10;99.90;;;;;;6186679;23;20472;-78
2022/11/27 06:17:48;;;;;;;13.93;5.43;;;6.10;99.90;;;;;;6187284;23;20025;-79
2022/11/27 06:20:14;;;;;;;14.32;5.57;;;6.20;99.90;;;;;;6187171;23;20017;-79
2022/11/27 06:22:40;;;;;;;15.95;5.80;;;6.10;99.90;;;;;;6187430;23;20028;-79
2022/11/27 06:25:06;;;;;;;16.80;5.60;;;6.10;99.90;;;;;;6187182;23;20009;-79
2022/11/27 06:27:33;;;;;;;18.45;5.63;;;6.10;99.90;;;;;;6187085;23;20303;-79
2022/11/27 06:29:59;;;;;;;19.60;6.07;;;6.10;99.90;;;;;;6160390;23;20428;-79
2022/11/27 06:32:24;;;;;;;19.05;5.97;;;6.10;99.90;;;;;;6186733;23;20449;-79
2022/11/27 06:34:50;;;;;;;14.65;5.53;;;6.10;99.90;;;;;;6187065;23;20488;-79
2022/11/27 06:37:16;;;;;;;15.45;5.53;;;6.10;99.90;;;;;;6186756;23;20021;-79
2022/11/27 06:39:41;;;;;;;18.50;6.25;;;6.10;99.90;;;;;;6186762;23;20032;-79
2022/11/27 06:42:07;;;;;;;14.90;5.57;;;6.10;99.90;;;;;;6187008;23;20009;-79
2022/11/27 06:44:32;;;;;;;14.00;5.45;;;6.10;99.90;;;;;;6187008;23;20029;-79
2022/11/27 06:46:58;;;;;;;20.38;6.00;;;6.10;99.90;;;;;;6186675;23;20025;-79
2022/11/27 06:49:24;;;;;;;13.32;4.40;;;6.10;99.90;;;;;;6186849;23;20024;-79
2022/11/27 06:51:49;;;;;;;17.33;6.70;;;6.20;99.90;;;;;;6186874;23;20062;-79
2022/11/27 06:54:15;;;;;;;14.02;5.95;;;6.20;99.90;;;;;;6186883;23;20472;-79
2022/11/27 06:56:41;;;;;;;13.75;5.32;;;6.20;99.90;;;;;;6186881;23;20017;-79
2022/11/27 06:59:10;;;;;;;9.13;5.10;;;6.20;99.90;;;;;;6186973;23;20024;-79
2022/11/27 07:01:36;;;;;;;18.88;5.28;;;6.20;99.90;;;;;;6160132;23;20017;-79
2022/11/27 07:04:01;;;;;;;10.55;4.55;;;6.20;99.90;;;;;;6186799;23;20036;-79
2022/11/27 07:06:27;;;;;;;15.90;4.65;;;6.20;99.90;;;;;;6186422;23;20009;-79
2022/11/27 07:08:54;;;;;;;11.52;4.72;;;6.20;99.90;;;;;;6186653;23;20020;-79
2022/11/27 07:11:23;;;;;;;13.60;5.00;;;6.20;99.90;;;;;;6187037;23;20040;-79
2022/11/27 07:13:50;;;;;;;14.57;5.20;;;6.20;99.90;;;;;;6159744;23;20028;-79
2022/11/27 07:16:16;;;;;;;11.38;5.43;;;6.20;99.90;;;;;;6185529;23;20017;-78
2022/11/27 07:18:47;;;;;;;12.77;4.57;;;6.20;99.90;;;;;;6159920;23;20021;-79
2022/11/27 07:21:13;;;;;;;11.38;4.60;;;6.10;99.90;;;;;;6186612;23;20130;-79
2022/11/27 07:23:39;;;;;;;14.85;5.72;;;6.10;99.90;;;;;;6186072;23;20021;-79
2022/11/27 07:26:12;;;;;;;13.10;4.80;;;6.10;99.90;;;;;;6159714;23;20009;-79
2022/11/27 07:28:38;;;;;;;13.45;4.97;;;6.10;99.90;;;;;;6186467;23;20028;-79
2022/11/27 07:31:04;;;;;;;14.60;5.35;;;6.10;99.90;;;;;;6186064;23;20033;-79
2022/11/27 07:33:31;;;;;;;11.88;4.85;;;6.10;99.90;;;;;;6186021;23;20457;-79
2022/11/27 07:36:06;;;;;;;13.10;4.57;;;6.00;99.90;;;;;;6160065;23;20393;-79
2022/11/27 07:38:33;;;;;;;11.50;4.75;;;6.00;99.90;;;;;;6186111;23;20088;-79
2022/11/27 07:41:04;;;;;;;14.52;5.05;;;6.00;99.90;;;;;;6186420;23;20021;-78
2022/11/27 07:43:32;;;;;;;12.98;5.28;;;6.00;99.90;;;;;;6186335;23;20013;-79
2022/11/27 07:46:01;;;;;;;12.80;4.95;;;6.10;99.90;;;;;;6186413;23;20016;-78
2022/11/27 07:48:27;;;;;;;14.32;5.25;;;6.00;99.90;;;;;;6159525;23;20500;-78
2022/11/27 07:50:52;;;;;;;14.13;4.72;;;6.00;99.90;;;;;;6185923;23;20021;-79
2022/11/27 07:53:18;;;;;;;11.20;4.63;;;6.00;99.90;;;;;;6186328;23;20064;-79
2022/11/27 07:55:44;;;;;;;12.73;4.63;;;6.10;99.90;;;;;;6185898;23;20079;-79
2022/11/27 07:58:10;;;;;;;13.55;5.57;;;6.10;99.90;;;;;;6186203;23;20334;-79
2022/11/27 08:00:36;;;;;;;19.55;5.00;;;6.00;99.90;;;;;;6159580;23;20434;-78
2022/11/27 08:03:01;;;;;;;15.38;4.88;;;6.00;99.90;;;;;;6159732;23;20028;-79
2022/11/27 08:05:27;;;;;;;13.15;5.07;;;6.00;99.90;;;;;;6159603;23;20017;-78
2022/11/27 08:07:53;;;;;;;15.00;5.93;;;6.10;99.90;;;;;;6159404;23;20032;-79
2022/11/27 08:10:19;;;;;;;14.50;4.65;;;6.00;99.90;;;;;;6186354;23;20096;-78
2022/11/27 08:12:45;;;;;;;18.23;5.15;;;6.10;99.90;;;;;;6185866;23;20024;-79
2022/11/27 08:15:11;;;;;;;12.23;4.68;;;6.10;99.90;;;;;;6185977;23;20017;-79
2022/11/27 08:17:38;;;;;;;14.57;6.07;;;6.10;99.90;;;;;;6186713;23;20055;-80
2022/11/27 08:20:04;;;;;;;16.58;5.07;;;6.10;99.90;;;;;;6185854;23;20021;-79
2022/11/27 08:22:30;;;;;;;12.40;5.38;;;6.10;99.90;;;;;;6185765;23;20018;-79
2022/11/27 08:24:56;;;;;;;11.15;4.45;;;6.10;99.90;;;;;;6185250;23;20029;-79
2022/11/27 08:27:21;;;;;;;12.20;5.07;;;6.10;99.90;;;;;;6185619;23;20326;-78
2022/11/27 08:29:47;;;;;;;14.43;5.10;;;6.10;99.90;;;;;;6159408;23;20043;-79
2022/11/27 08:32:13;;;;;;;13.13;5.75;;;6.10;99.90;;;;;;6159169;23;20017;-78
2022/11/27 08:34:39;;;;;;;14.05;4.68;;;6.10;99.90;;;;;;6185984;23;20047;-79
2022/11/27 08:37:05;;;;;;;13.55;5.28;;;6.10;99.90;;;;;;6186807;23;20032;-79
2022/11/27 08:39:32;;;;;;;15.15;5.68;;;6.10;99.90;;;;;;6161194;23;20408;-79
2022/11/27 08:41:57;;;;;;;14.50;6.05;;;6.10;99.90;;;;;;6161135;23;20393;-79
2022/11/27 08:44:23;;;;;;;12.70;4.85;;;6.00;99.90;;;;;;6187805;23;20021;-79
2022/11/27 08:46:49;;;;;;;11.95;4.78;;;6.00;99.90;;;;;;6187588;23;20029;-79
2022/11/27 08:49:14;;;;;;;16.15;5.25;;;6.00;99.90;;;;;;6187701;23;20060;-78
2022/11/27 08:51:40;;;;;;;18.88;6.05;;;6.00;99.90;;;;;;6187715;23;20488;-82
2022/11/27 08:54:05;;;;;;;14.20;6.07;;;6.00;99.90;;;;;;6161183;23;20350;-79
2022/11/27 08:56:31;;;;;;;9.63;4.55;;;6.00;99.90;;;;;;6187609;23;20338;-79
2022/11/27 08:58:57;;;;;;;15.85;5.68;;;6.00;99.90;;;;;;6187850;23;20023;-78
2022/11/27 09:01:28;;;;;;;18.98;6.43;;;6.00;99.90;;;;;;6187434;23;20056;-78
2022/11/27 09:03:54;;;;;;;13.55;6.65;;;6.00;99.90;;;;;;6160995;23;20021;-78
2022/11/27 09:06:29;;;;;;;10.95;5.53;;;6.00;99.90;;;;;;6187707;23;20020;-79
2022/11/27 09:08:56;;;;;;;14.85;5.63;;;6.00;99.90;;;;;;6187517;23;20013;-78
2022/11/27 09:11:22;;;;;;;11.68;5.22;;;6.00;99.90;;;;;;6160920;23;20067;-78
2022/11/27 09:13:48;;;;;;;10.13;4.95;;;6.00;99.90;;;;;;6187188;23;20088;-79
2022/11/27 09:16:18;;;;;;;18.02;6.07;;;5.90;99.90;;;;;;6187157;23;20036;-78
2022/11/27 09:18:45;;;;;;;17.70;5.68;;;6.00;99.90;;;;;;6187506;23;20017;-79
2022/11/27 09:21:12;;;;;;;14.35;6.30;;;6.00;99.90;;;;;;6187548;23;20020;-78
2022/11/27 09:23:38;;;;;;;11.65;5.95;;;6.00;99.90;;;;;;6160795;23;20059;-78
2022/11/27 09:26:06;;;;;;;16.58;6.65;;;5.90;99.90;;;;;;6187170;23;20028;-78
2022/11/27 09:28:33;;;;;;;18.05;5.93;;;6.00;99.90;;;;;;6186907;23;20319;-78
2022/11/27 09:31:00;;;;;;;17.55;6.22;;;6.00;99.90;;;;;;6187176;23;20458;-78
2022/11/27 09:33:28;;;;;;;16.45;6.38;;;6.00;99.90;;;;;;6160686;23;20013;-79
2022/11/27 09:35:54;;;;;;;15.32;6.90;;;5.90;99.90;;;;;;6160718;23;20024;-79
2022/11/27 09:38:20;;;;;;;17.80;6.07;;;5.90;99.90;;;;;;6160570;23;20017;-79
2022/11/27 09:40:51;;;;;;;15.07;6.85;;;5.90;99.90;;;;;;6186933;23;20013;-80
2022/11/27 09:43:23;;;;;;;15.48;6.82;;;5.90;99.90;;;;;;6160617;23;20028;-80
2022/11/27 09:45:53;;;;;;;12.27;6.20;;;5.90;99.90;;;;;;6187355;23;20009;-80
2022/11/27 09:48:38;;;;;;;16.20;7.88;;;5.90;99.90;;;;;;6160059;23;20436;-80
2022/11/27 09:51:32;;;;;;;12.48;6.53;;;5.90;99.90;;;;;;6187241;23;20017;-81
2022/11/27 09:54:16;;;;;;;13.20;6.05;;;5.90;99.90;;;;;;6187186;23;20048;-80
2022/11/27 09:56:44;;;;;;;;;;;5.90;99.90;;;;;;6160976;23;20099;-81
2022/11/27 09:59:20;;;;;;;18.23;6.45;;;5.90;99.90;;;;;;6187059;23;19943;-79
2022/11/27 10:01:46;;;;;;;17.60;8.20;;;6.00;99.90;;;;;;6186743;23;20303;-80
2022/11/27 10:04:15;;;;;;;15.45;6.53;;;5.90;99.90;;;;;;6187072;23;20013;-80
2022/11/27 10:06:58;;;;;;;17.90;6.43;;;6.00;99.90;;;;;;6186738;23;20017;-81
2022/11/27 10:09:32;;;;;;;15.23;6.57;;;6.00;99.90;;;;;;6159592;23;20029;-79
2022/11/27 10:12:20;;;;;;;19.65;7.22;;;5.90;99.90;;;;;;6186957;23;20017;-80
2022/11/27 10:14:52;;;;;;;15.63;6.47;;;5.90;99.90;;;;;;6186664;23;20337;-80
2022/11/27 10:17:42;;;;;;;15.13;6.40;;;5.90;99.90;;;;;;6186535;23;20096;-80
2022/11/27 10:20:28;;;;;;;19.92;7.22;;;5.90;99.90;;;;;;6186977;23;20060;-80
2022/11/27 10:23:13;;;;;;;15.40;7.45;;;5.90;99.90;;;;;;6186607;23;20327;-80
2022/11/27 10:25:45;;;;;;;19.50;7.13;;;5.90;99.90;;;;;;6186884;23;20072;-80
2022/11/27 10:28:36;;;;;;;19.15;7.18;;;5.90;99.90;;;;;;6186762;23;20021;-80
2022/11/27 10:31:21;;;;;;;15.48;6.68;;;5.90;99.90;;;;;;6186491;23;20397;-80
2022/11/27 10:33:55;;;;;;;17.95;8.07;;;5.90;99.90;;;;;;6160164;23;20088;-80
2022/11/27 10:36:40;;;;;;;18.77;7.20;;;5.90;99.90;;;;;;6186437;23;20025;-80
2022/11/27 10:39:17;;;;;;;20.52;7.72;;;5.90;99.90;;;;;;6186494;23;20437;-80
2022/11/27 10:42:01;;;;;;;18.95;7.53;;;5.90;99.90;;;;;;6186452;23;20119;-80
2022/11/27 10:44:32;;;;;;;18.65;7.97;;;5.90;99.90;;;;;;6186861;23;20013;-80
2022/11/27 10:47:02;;;;;;;16.92;7.95;;;5.80;99.90;;;;;;6159838;23;20136;-80
2022/11/27 10:49:29;;;;;;;17.30;8.00;;;5.90;99.90;;;;;;6186675;23;20053;-80
2022/11/27 10:51:54;;;;;;;20.90;7.90;;;5.90;99.90;;;;;;6186649;23;20015;-81
2022/11/27 10:54:27;;;;;;;18.80;8.18;;;5.90;99.90;;;;;;6186357;23;20017;-80
2022/11/27 10:57:34;;;;;;;16.15;7.95;;;5.90;99.90;;;;;;6159943;23;20017;-80
2022/11/27 11:00:08;;;;;;;17.02;8.02;;;5.90;99.90;;;;;;6186197;23;20017;-79
2022/11/27 11:02:37;;;;;;;21.52;7.88;;;5.90;99.90;;;;;;6186457;23;20021;-80
2022/11/27 11:05:15;;;;;;;21.13;9.10;;;5.90;99.90;;;;;;6159871;23;20013;-79
2022/11/27 11:07:40;;;;;;;21.35;11.05;;;6.00;99.90;;;;;;6185934;23;20021;-80
2022/11/27 11:10:28;;;;;;;18.27;7.90;;;5.90;99.90;;;;;;6186092;23;20025;-79
2022/11/27 11:13:13;;;;;;;25.60;9.05;;;5.90;99.90;;;;;;6186088;23;20467;-80
2022/11/27 11:15:52;;;;;;;19.30;8.30;;;6.00;99.90;;;;;;6186171;23;20507;-80
2022/11/27 11:18:19;;;;;;;19.10;10.07;;;5.90;99.90;;;;;;6186203;23;20060;-80
2022/11/27 11:20:48;;;;;;;18.60;7.80;;;6.00;99.90;;;;;;6186378;23;20009;-80
2022/11/27 11:23:37;;;;;;;18.58;7.45;;;5.90;99.90;;;;;;6185733;23;20013;-79
2022/11/27 11:26:29;;;;;;;19.90;8.88;;;6.00;99.90;;;;;;6185898;23;20013;-79
2022/11/27 11:29:01;;;;;;;18.83;9.10;;;6.00;99.90;;;;;;6185876;23;20319;-79
2022/11/27 11:31:37;;;;;;;22.13;9.32;;;6.00;99.90;;;;;;6185977;23;20021;-79
2022/11/27 11:34:12;;;;;;;21.05;8.50;;;6.00;99.90;;;;;;6186253;23;20009;-80
2022/11/27 11:36:38;;;;;;;21.92;8.10;;;6.00;99.90;;;;;;6159299;23;20021;-79
2022/11/27 11:39:04;;;;;;;23.38;8.98;;;6.00;99.90;;;;;;6185845;23;20021;-79
2022/11/27 11:41:38;;;;;;;18.58;8.07;;;6.00;99.90;;;;;;6185893;23;20013;-80
2022/11/27 11:44:04;;;;;;;18.50;8.27;;;6.10;99.90;;;;;;6185859;23;20053;-79
2022/11/27 11:46:32;;;;;;;23.25;8.23;;;6.00;99.90;;;;;;6159232;23;20020;-80
2022/11/27 11:48:58;;;;;;;23.25;9.32;;;6.10;99.90;;;;;;6185796;23;20017;-80
2022/11/27 11:51:55;;;;;;;28.70;9.52;;;6.10;99.90;;;;;;6159204;23;20052;-79
2022/11/27 11:54:30;;;;;;;19.90;7.53;;;6.10;99.90;;;;;;6137318;23;20017;-80
2022/11/27 11:57:01;;;;;;;25.13;10.75;;;6.10;99.90;;;;;;6185958;23;20010;-79
2022/11/27 11:59:40;;;;;;;19.67;8.63;;;6.20;99.90;;;;;;6159238;23;20381;-79
2022/11/27 12:02:41;;;;;;;22.17;9.07;;;6.10;99.90;;;;;;6185513;23;20025;-79
2022/11/27 12:05:25;;;;;;;23.70;9.10;;;6.10;99.90;;;;;;6185852;23;20037;-79
2022/11/27 12:08:09;;;;;;;18.40;7.45;;;6.10;99.90;;;;;;6185351;23;20020;-79
2022/11/27 12:10:52;;;;;;;18.85;8.48;;;6.20;99.90;;;;;;6185445;23;20048;-79
2022/11/27 12:13:30;;;;;;;21.98;8.57;;;6.10;99.90;;;;;;6186085;23;20052;-79
2022/11/27 12:16:28;;;;;;;23.48;9.30;;;6.20;99.90;;;;;;6159132;23;20040;-79
2022/11/27 12:19:24;;;;;;;20.98;10.10;;;6.20;99.90;;;;;;6185552;23;20403;-79
2022/11/27 12:22:36;;;;;;;17.50;8.27;;;6.20;99.90;;;;;;6159365;23;20079;-80
2022/11/27 12:25:13;;;;;;;21.48;8.55;;;6.20;99.90;;;;;;6185957;23;20021;-79
2022/11/27 12:27:51;;;;;;;20.27;9.40;;;6.20;99.90;;;;;;6185667;23;20021;-81
2022/11/27 12:30:20;;;;;;;20.98;9.93;;;6.20;99.90;;;;;;6185909;23;20021;-79
2022/11/27 12:32:51;;;;;;;24.77;10.13;;;6.20;99.90;;;;;;6183418;23;20477;-78
2022/11/27 12:35:49;;;;;;;20.05;10.23;;;6.30;99.90;;;;;;6184480;23;20017;-78
2022/11/27 12:38:59;;;;;;;21.90;8.90;;;6.20;99.90;;;;;;6183525;23;20132;-79
2022/11/27 12:41:43;;;;;;;25.17;9.88;;;6.30;99.90;;;;;;6079935;23;20029;-78
2022/11/27 12:44:34;;;;;;;20.40;9.00;;;6.30;99.90;;;;;;6185922;23;20075;-78
2022/11/27 12:47:35;;;;;;;20.75;8.32;;;6.30;99.90;;;;;;6159267;23;20018;-79
2022/11/27 12:50:08;;;;;;;16.70;8.00;;;6.30;99.90;;;;;;6159074;23;20052;-79
2022/11/27 12:52:40;;;;;;;22.58;7.95;;;6.30;99.90;;;;;;6185972;23;20013;-79
2022/11/27 12:55:14;;;;;;;23.47;9.77;;;6.40;99.90;;;;;;6158532;23;20025;-79
2022/11/27 12:57:45;;;;;;;23.70;9.32;;;6.30;99.90;;;;;;6185926;23;20013;-79
2022/11/27 13:00:23;;;;;;;19.88;9.00;;;6.30;99.90;;;;;;6159055;23;20021;-79
2022/11/27 13:03:01;;;;;;;17.75;8.15;;;6.40;99.90;;;;;;6159018;23;20334;-79
2022/11/27 13:05:39;;;;;;;18.50;7.75;;;6.40;99.90;;;;;;6159084;23;20437;-79